Time;durP1;ratioP1;P1;durP2;ratioP2;P2;SDS_P1;SDS_P2;PMS_P1;PMS_P2;Temp;Humidity;BMP_temperature;BMP_pressure;BME280_temperature;BME280_humidity;BME280_pressure;Samples;Min_cycle;Max_cycle;Signal;HPM_P1;HPM_P2
2021/05/05 00:02:20;;;;;;;3.47;1.42;;;;;;;6.39;75.70;100002.34;5062580;28;20131;-73
2021/05/05 00:04:47;;;;;;;4.28;1.30;;;;;;;6.35;75.59;100004.44;5037575;28;20114;-74
2021/05/05 00:07:13;;;;;;;4.70;1.35;;;;;;;6.40;75.92;100011.81;5039865;28;20048;-74
2021/05/05 00:09:39;;;;;;;4.40;1.60;;;;;;;6.37;75.62;100015.53;5059617;28;20044;-74
2021/05/05 00:12:06;;;;;;;4.68;1.20;;;;;;;6.38;75.71;100011.94;5057559;28;20061;-74
2021/05/05 00:14:32;;;;;;;3.78;1.38;;;;;;;6.41;75.59;100016.91;5061424;28;20160;-74
2021/05/05 00:16:58;;;;;;;5.63;1.55;;;;;;;6.42;75.81;100008.09;5056735;28;20099;-74
2021/05/05 00:19:24;;;;;;;6.32;1.67;;;;;;;6.44;75.45;100011.38;5061578;28;20207;-74
2021/05/05 00:21:50;;;;;;;6.85;1.48;;;;;;;6.44;75.51;100019.22;5049883;28;20459;-75
2021/05/05 00:24:16;;;;;;;7.65;1.85;;;;;;;6.54;75.81;100021.78;5062068;28;20060;-74
2021/05/05 00:26:42;;;;;;;6.60;1.55;;;;;;;6.47;75.40;100016.34;5062442;28;20877;-74
2021/05/05 00:29:09;;;;;;;9.52;2.15;;;;;;;6.53;75.52;100015.78;5056685;28;20044;-75
2021/05/05 00:31:35;;;;;;;8.25;1.45;;;;;;;6.51;75.02;100016.88;5062486;28;20056;-74
2021/05/05 00:34:02;;;;;;;6.70;1.80;;;;;;;6.54;74.98;100014.78;5050113;28;20575;-74
2021/05/05 00:36:28;;;;;;;9.00;1.90;;;;;;;6.54;74.78;100009.59;5058637;28;20133;-74
2021/05/05 00:38:54;;;;;;;6.18;1.85;;;;;;;6.57;75.21;100016.31;5055015;28;20125;-74
2021/05/05 00:41:21;;;;;;;11.63;2.22;;;;;;;6.54;75.03;100012.19;5059159;28;20060;-74
2021/05/05 00:43:47;;;;;;;6.80;1.95;;;;;;;6.57;74.54;100012.91;5043385;28;20056;-74
2021/05/05 00:46:13;;;;;;;9.07;2.03;;;;;;;6.52;74.07;100001.09;5054164;28;20052;-74
2021/05/05 00:48:39;;;;;;;5.68;1.77;;;;;;;6.49;74.22;99997.97;5057560;28;20136;-73
2021/05/05 00:51:06;;;;;;;7.25;2.13;;;;;;;6.51;74.09;99996.84;5056236;28;20059;-74
2021/05/05 00:53:33;;;;;;;11.82;2.10;;;;;;;6.54;74.17;99996.56;5062016;28;20152;-74
2021/05/05 00:56:00;;;;;;;9.25;2.05;;;;;;;6.55;74.54;100002.59;5056293;28;20503;-74
2021/05/05 00:58:27;;;;;;;10.82;2.30;;;;;;;6.55;74.29;99997.41;5061615;28;20048;-74
2021/05/05 01:00:53;;;;;;;6.55;2.00;;;;;;;6.53;74.01;100005.34;5050975;28;20517;-74
2021/05/05 01:03:20;;;;;;;9.15;2.50;;;;;;;6.53;74.16;99997.53;5052788;28;20048;-74
2021/05/05 01:05:50;;;;;;;8.32;2.58;;;;;;;6.48;74.44;99993.69;5044436;28;20764;-73
2021/05/05 01:08:20;;;;;;;10.57;2.88;;;;;;;6.51;75.11;99998.66;5053004;28;20080;-74
2021/05/05 01:10:47;;;;;;;12.95;3.92;;;;;;;6.50;74.86;100010.00;5061597;28;20052;-74
2021/05/05 01:13:14;;;;;;;10.07;3.90;;;;;;;6.45;75.96;99993.97;5057369;28;20537;-73
2021/05/05 01:15:41;;;;;;;8.80;3.47;;;;;;;6.44;75.87;99997.53;5055751;28;20072;-74
2021/05/05 01:18:07;;;;;;;10.60;3.92;;;;;;;6.47;76.19;100007.69;5060439;28;20817;-73
2021/05/05 01:20:33;;;;;;;7.15;2.72;;;;;;;6.38;75.57;100004.13;5057620;28;20179;-74
2021/05/05 01:22:59;;;;;;;9.02;3.40;;;;;;;6.39;75.25;100003.19;5063192;28;20155;-74
2021/05/05 01:25:26;;;;;;;7.45;2.25;;;;;;;6.34;75.08;100007.97;5055686;28;20080;-74
2021/05/05 01:27:52;;;;;;;12.10;3.15;;;;;;;6.22;75.77;99998.69;5054957;28;20068;-75
2021/05/05 01:30:20;;;;;;;7.97;2.58;;;;;;;6.23;76.25;99997.69;5038546;28;20671;-74
2021/05/05 01:32:47;;;;;;;6.68;2.40;;;;;;;6.31;76.46;100006.47;5062269;28;20122;-74
2021/05/05 01:35:15;;;;;;;8.32;2.25;;;;;;;6.37;76.48;100012.09;5039044;28;20094;-74
2021/05/05 01:37:42;;;;;;;10.57;2.70;;;;;;;6.38;76.36;100013.75;5060578;28;20097;-74
2021/05/05 01:40:11;;;;;;;10.18;2.65;;;;;;;6.41;77.73;100013.44;5063028;28;20048;-75
2021/05/05 01:42:37;;;;;;;13.60;2.67;;;;;;;6.24;77.42;100012.38;5055074;28;20911;-74
2021/05/05 01:45:04;;;;;;;7.97;2.28;;;;;;;6.16;78.30;100026.09;5065295;28;20152;-74
2021/05/05 01:47:31;;;;;;;6.93;2.22;;;;;;;6.06;78.64;100020.88;5058234;28;20141;-74
2021/05/05 01:49:57;;;;;;;5.32;1.83;;;;;;;5.98;78.28;100020.75;5065701;28;20049;-73
2021/05/05 01:52:23;;;;;;;7.57;1.70;;;;;;;5.96;79.29;100008.81;5064040;28;20058;-74
2021/05/05 01:54:49;;;;;;;8.55;1.80;;;;;;;5.96;78.72;100016.63;5056983;28;20080;-74
2021/05/05 01:57:21;;;;;;;7.95;1.73;;;;;;;5.87;78.29;100013.03;5060373;28;20159;-74
2021/05/05 01:59:47;;;;;;;6.72;1.38;;;;;;;5.88;78.51;100009.44;5059789;28;20136;-74
2021/05/05 02:02:13;;;;;;;8.95;1.98;;;;;;;5.82;78.37;100016.03;5064174;28;20546;-74
2021/05/05 02:04:39;;;;;;;6.45;1.60;;;;;;;5.80;79.44;100025.78;5059184;28;20040;-74
2021/05/05 02:07:05;;;;;;;7.75;1.65;;;;;;;5.80;79.52;100019.72;5064765;28;20412;-74
2021/05/05 02:09:32;;;;;;;8.10;1.85;;;;;;;5.81;79.14;100013.56;5042655;28;20048;-74
2021/05/05 02:11:58;;;;;;;6.72;1.70;;;;;;;5.68;79.52;100019.84;5056781;28;20087;-74
2021/05/05 02:14:24;;;;;;;9.65;1.90;;;;;;;5.64;79.22;100015.84;5060853;28;20373;-74
2021/05/05 02:17:00;;;;;;;11.13;2.58;;;;;;;5.63;79.74;100018.63;5040532;28;20113;-74
2021/05/05 02:19:27;;;;;;;6.75;1.60;;;;;;;5.61;80.42;100017.94;5063166;28;20052;-74
2021/05/05 02:21:53;;;;;;;9.02;2.20;;;;;;;5.63;80.69;100024.63;5052115;28;20310;-74
2021/05/05 02:24:19;;;;;;;14.55;2.85;;;;;;;5.64;80.95;100022.84;5063839;28;20071;-75
2021/05/05 02:26:45;;;;;;;10.60;2.17;;;;;;;5.59;80.38;100023.25;5044547;28;20056;-74
2021/05/05 02:29:13;;;;;;;10.32;2.17;;;;;;;5.60;81.24;100021.47;5059007;28;20045;-75
2021/05/05 02:31:39;;;;;;;8.27;1.90;;;;;;;5.63;80.64;100018.63;5064124;28;20060;-74
2021/05/05 02:34:05;;;;;;;8.65;1.95;;;;;;;5.52;80.43;100015.16;5058196;28;20055;-75
2021/05/05 02:36:32;;;;;;;9.82;1.83;;;;;;;5.51;80.30;100008.31;5060228;28;20080;-75
2021/05/05 02:39:14;;;;;;;10.05;1.85;;;;;;;5.54;80.57;100017.63;5054021;28;20050;-74
2021/05/05 02:41:41;;;;;;;12.43;2.30;;;;;;;5.52;80.64;100016.94;5064634;28;20099;-74
2021/05/05 02:44:07;;;;;;;13.68;2.38;;;;;;;5.46;80.21;100002.69;5053774;28;20121;-74
2021/05/05 02:46:33;;;;;;;9.50;1.90;;;;;;;5.50;80.62;99998.03;5064683;28;20088;-75
2021/05/05 02:49:00;;;;;;;8.05;1.75;;;;;;;5.40;80.23;99998.00;5064174;28;20160;-74
2021/05/05 02:51:26;;;;;;;10.73;2.10;;;;;;;5.49;81.16;100012.00;5036181;28;20488;-75
2021/05/05 02:53:52;;;;;;;14.80;2.63;;;;;;;5.43;81.51;100009.91;5060051;28;20052;-74
2021/05/05 02:56:18;;;;;;;11.20;2.30;;;;;;;5.46;81.23;100001.88;5057681;28;20079;-74
2021/05/05 02:58:44;;;;;;;13.20;2.40;;;;;;;5.51;81.45;100005.72;5064807;28;20046;-74
2021/05/05 03:01:10;;;;;;;9.27;2.28;;;;;;;5.47;81.58;100009.53;5043432;28;20052;-74
2021/05/05 03:03:36;;;;;;;8.40;2.30;;;;;;;5.44;81.60;100001.19;5058527;28;20110;-74
2021/05/05 03:06:02;;;;;;;11.27;2.42;;;;;;;5.43;81.17;100002.97;5060244;28;20063;-74
2021/05/05 03:08:28;;;;;;;16.05;2.38;;;;;;;5.52;81.62;100006.53;5057180;28;20086;-74
2021/05/05 03:10:55;;;;;;;10.82;2.47;;;;;;;5.51;81.42;100007.50;5066586;28;20106;-75
2021/05/05 03:13:21;;;;;;;8.48;2.42;;;;;;;5.52;81.48;100014.34;5059654;28;20137;-75
2021/05/05 03:15:46;;;;;;;11.43;2.83;;;;;;;5.54;81.35;100010.63;5063567;28;20052;-74
2021/05/05 03:18:13;;;;;;;8.73;2.65;;;;;;;5.55;81.59;100014.06;5042335;28;20400;-74
2021/05/05 03:20:39;;;;;;;10.60;2.85;;;;;;;5.58;81.50;100016.41;5055928;28;20544;-75
2021/05/05 03:23:05;;;;;;;10.25;2.95;;;;;;;5.63;81.64;100019.44;5068697;28;20054;-74
2021/05/05 03:25:31;;;;;;;12.30;3.17;;;;;;;5.64;81.12;100022.84;5059057;28;20056;-74
2021/05/05 03:27:57;;;;;;;11.18;2.88;;;;;;;5.69;80.71;100016.28;5064495;28;20084;-74
2021/05/05 03:30:23;;;;;;;8.55;2.78;;;;;;;5.73;81.52;100016.84;5040019;28;20399;-74
2021/05/05 03:32:50;;;;;;;11.20;3.53;;;;;;;5.74;81.06;100021.06;5058218;28;20098;-73
2021/05/05 03:35:17;;;;;;;11.10;3.22;;;;;;;5.71;80.83;100023.97;5056716;28;20912;-73
2021/05/05 03:37:43;;;;;;;10.18;3.17;;;;;;;5.76;80.99;100021.75;5058598;28;20052;-74
2021/05/05 03:40:09;;;;;;;9.65;3.10;;;;;;;5.74;80.70;100016.72;5064976;28;20117;-74
2021/05/05 03:42:35;;;;;;;20.10;4.00;;;;;;;5.65;80.71;100016.69;5056541;28;20098;-74
2021/05/05 03:45:04;;;;;;;9.45;3.83;;;;;;;5.63;80.59;100019.44;5060081;28;20102;-75
2021/05/05 03:47:30;;;;;;;11.93;3.85;;;;;;;5.62;80.89;100019.56;5054609;28;20649;-74
2021/05/05 03:49:57;;;;;;;13.65;3.13;;;;;;;5.49;80.66;100014.63;5059874;28;20075;-74
2021/05/05 03:52:24;;;;;;;12.65;3.80;;;;;;;5.45;81.33;100016.66;5062140;28;20060;-74
2021/05/05 03:54:50;;;;;;;18.67;4.60;;;;;;;5.46;80.79;100023.50;5038335;28;20090;-74
2021/05/05 03:57:16;;;;;;;12.32;4.15;;;;;;;5.40;81.64;100024.03;5061566;28;20160;-74
2021/05/05 03:59:43;;;;;;;12.13;4.00;;;;;;;5.44;81.62;100017.59;5039828;28;20063;-74
2021/05/05 04:02:10;;;;;;;15.65;4.40;;;;;;;5.43;81.24;100018.56;5059649;28;20171;-74
2021/05/05 04:04:36;;;;;;;13.63;4.22;;;;;;;5.43;81.50;100023.78;5057715;28;20604;-74
2021/05/05 04:07:02;;;;;;;13.60;3.88;;;;;;;5.43;81.20;100028.13;5063397;28;20052;-74
2021/05/05 04:09:28;;;;;;;19.75;4.78;;;;;;;5.50;80.66;100032.66;5062957;28;20151;-74
2021/05/05 04:11:54;;;;;;;10.88;3.50;;;;;;;5.43;80.62;100034.19;5054981;28;20420;-74
2021/05/05 04:14:20;;;;;;;12.40;3.92;;;;;;;5.44;80.76;100035.00;5056029;28;20045;-74
2021/05/05 04:17:04;;;;;;;14.77;4.10;;;;;;;5.46;81.15;100040.88;5055160;28;20059;-74
2021/05/05 04:19:48;;;;;;;11.77;3.80;;;;;;;5.52;80.72;100030.75;5063743;28;20187;-74
2021/05/05 04:22:32;;;;;;;12.73;2.97;;;;;;;5.49;80.34;100038.03;5041720;28;20780;-74
2021/05/05 04:25:18;;;;;;;16.10;3.60;;;;;;;5.46;80.21;100040.88;5063030;28;20051;-74
2021/05/05 04:27:46;;;;;;;10.40;3.40;;;;;;;5.47;79.90;100042.50;5052212;28;20072;-74
2021/05/05 04:30:13;;;;;;;9.82;3.08;;;;;;;5.43;80.15;100044.59;5059342;28;20095;-75
2021/05/05 04:32:41;;;;;;;17.02;3.78;;;;;;;5.47;80.95;100039.91;5061332;28;20106;-74
2021/05/05 04:35:08;;;;;;;13.98;3.55;;;;;;;5.50;80.45;100045.69;5058132;28;20056;-74
2021/05/05 04:37:34;;;;;;;12.07;2.75;;;;;;;5.47;80.40;100052.91;5063860;28;20080;-74
2021/05/05 04:40:01;;;;;;;17.85;3.78;;;;;;;5.48;80.00;100049.38;5054500;28;20076;-74
2021/05/05 04:42:28;;;;;;;10.60;2.95;;;;;;;5.48;80.50;100049.38;5057805;28;20732;-74
2021/05/05 04:44:54;;;;;;;17.65;4.10;;;;;;;5.48;80.35;100055.38;5057145;28;20052;-74
2021/05/05 04:47:20;;;;;;;9.15;3.15;;;;;;;5.49;79.78;100056.25;5063006;28;20094;-74
2021/05/05 04:49:46;;;;;;;13.02;3.97;;;;;;;5.52;81.07;100061.16;5058829;28;20067;-74
2021/05/05 04:52:12;;;;;;;14.13;3.47;;;;;;;5.50;81.40;100063.88;5038862;28;20575;-74
2021/05/05 04:54:38;;;;;;;12.90;3.58;;;;;;;5.48;80.07;100072.78;5058863;28;20499;-74
2021/05/05 04:57:04;;;;;;;14.05;3.58;;;;;;;5.50;80.45;100063.06;5053665;28;20121;-74
2021/05/05 04:59:30;;;;;;;9.15;3.20;;;;;;;5.46;80.12;100072.09;5057591;28;20094;-74
2021/05/05 05:01:56;;;;;;;12.32;3.38;;;;;;;5.44;80.45;100071.41;5048957;28;20049;-74
2021/05/05 05:04:23;;;;;;;13.32;3.47;;;;;;;5.42;80.90;100073.31;5039597;28;20091;-74
2021/05/05 05:06:49;;;;;;;12.55;3.60;;;;;;;5.46;80.47;100069.50;5052542;28;20139;-74
2021/05/05 05:09:15;;;;;;;12.43;3.63;;;;;;;5.37;80.29;100081.53;5031996;28;20056;-74
2021/05/05 05:11:41;;;;;;;12.38;3.92;;;;;;;5.39;80.80;100070.97;5047175;28;20600;-74
2021/05/05 05:14:07;;;;;;;12.70;3.60;;;;;;;5.31;81.28;100077.66;5049491;28;20082;-74
2021/05/05 05:16:33;;;;;;;15.77;4.18;;;;;;;5.42;81.82;100079.34;5066675;28;20794;-74
2021/05/05 05:18:59;;;;;;;13.55;3.85;;;;;;;5.35;81.00;100086.84;5051851;28;20048;-74
2021/05/05 05:21:25;;;;;;;8.38;3.38;;;;;;;5.38;80.90;100097.94;5058761;28;20110;-75
2021/05/05 05:23:54;;;;;;;8.35;3.30;;;;;;;5.44;81.39;100098.22;5052937;28;20140;-74
2021/05/05 05:26:20;;;;;;;11.57;3.35;;;;;;;5.54;81.68;100109.50;5051723;28;20098;-75
2021/05/05 05:28:46;;;;;;;10.02;4.30;;;;;;;5.44;81.02;100105.22;5060173;28;20048;-73
2021/05/05 05:31:12;;;;;;;15.43;3.70;;;;;;;5.36;80.84;100100.66;5062117;28;20080;-74
2021/05/05 05:33:38;;;;;;;11.93;3.10;;;;;;;5.32;80.55;100099.28;5061503;28;20045;-74
2021/05/05 05:36:05;;;;;;;13.73;3.22;;;;;;;5.41;80.51;100115.88;5056501;28;20048;-74
2021/05/05 05:38:31;;;;;;;9.88;3.53;;;;;;;5.45;80.83;100112.91;5060377;28;20508;-74
2021/05/05 05:40:57;;;;;;;7.80;2.92;;;;;;;5.41;80.64;100108.06;5063393;28;20075;-74
2021/05/05 05:43:23;;;;;;;12.65;3.40;;;;;;;5.39;80.32;100099.56;5050178;28;20044;-74
2021/05/05 05:45:49;;;;;;;9.43;2.78;;;;;;;5.36;80.62;100105.88;5064043;28;20163;-74
2021/05/05 05:48:15;;;;;;;10.60;2.90;;;;;;;5.35;80.35;100112.00;5053139;28;20060;-74
2021/05/05 05:50:41;;;;;;;8.95;3.10;;;;;;;5.37;79.80;100114.47;5062866;28;20485;-74
2021/05/05 05:53:07;;;;;;;9.75;2.60;;;;;;;5.41;79.59;100121.91;5058959;28;20057;-74
2021/05/05 05:55:35;;;;;;;7.07;3.33;;;;;;;5.51;79.77;100120.19;5065607;28;20090;-74
2021/05/05 05:58:03;;;;;;;8.27;3.13;;;;;;;5.51;79.47;100112.38;5063093;28;20441;-74
2021/05/05 06:00:30;;;;;;;11.10;3.10;;;;;;;5.52;78.98;100123.59;5054730;28;20541;-74
2021/05/05 06:02:56;;;;;;;9.50;2.20;;;;;;;5.59;78.95;100131.72;5054504;28;20072;-75
2021/05/05 06:05:22;;;;;;;7.60;2.47;;;;;;;5.63;79.22;100146.94;5057579;28;20129;-74
2021/05/05 06:07:49;;;;;;;7.47;2.33;;;;;;;5.65;78.48;100136.38;5061222;28;20102;-75
2021/05/05 06:10:15;;;;;;;9.10;2.67;;;;;;;5.72;79.07;100140.09;5052597;28;20102;-74
2021/05/05 06:12:42;;;;;;;9.70;3.67;;;;;;;5.77;78.57;100137.94;5046540;28;20045;-74
2021/05/05 06:15:10;;;;;;;9.55;3.50;;;;;;;5.89;78.54;100143.84;5044155;28;20447;-74
2021/05/05 06:17:36;;;;;;;8.88;3.83;;;;;;;5.92;77.91;100136.63;5032171;28;20117;-74
2021/05/05 06:20:05;;;;;;;7.47;2.97;;;;;;;5.95;78.22;100151.16;5067936;28;20052;-74
2021/05/05 06:22:31;;;;;;;10.27;3.10;;;;;;;5.98;77.21;100152.66;5041422;28;20080;-74
2021/05/05 06:24:57;;;;;;;10.82;2.60;;;;;;;5.93;76.26;100151.25;5065437;28;20080;-74
2021/05/05 06:27:23;;;;;;;6.53;2.47;;;;;;;5.98;75.93;100147.47;5057960;28;20114;-74
2021/05/05 06:29:49;;;;;;;13.48;3.30;;;;;;;6.03;75.66;100151.31;5059238;28;20068;-74
2021/05/05 06:32:16;;;;;;;10.98;2.50;;;;;;;6.07;76.29;100154.47;5044413;28;20060;-74
2021/05/05 06:34:43;;;;;;;8.45;2.30;;;;;;;6.07;76.07;100173.53;5057723;28;20056;-74
2021/05/05 06:37:09;;;;;;;8.30;2.15;;;;;;;6.02;74.65;100172.28;5061799;28;20059;-73
2021/05/05 06:39:35;;;;;;;12.30;3.08;;;;;;;6.09;75.91;100170.78;5040389;28;20158;-73
2021/05/05 06:42:01;;;;;;;8.77;2.28;;;;;;;6.14;75.95;100174.66;5060337;28;20055;-73
2021/05/05 06:44:28;;;;;;;7.30;2.47;;;;;;;6.10;75.76;100175.88;5052465;28;20551;-75
2021/05/05 06:46:57;;;;;;;10.02;2.45;;;;;;;6.06;75.73;100179.72;5062022;28;21792;-73
2021/05/05 06:49:24;;;;;;;9.95;2.65;;;;;;;6.07;75.51;100178.72;5062644;28;20059;-73
2021/05/05 06:51:51;;;;;;;10.10;1.95;;;;;;;6.16;74.94;100186.72;5058514;28;20135;-73
2021/05/05 06:54:18;;;;;;;13.18;2.80;;;;;;;6.35;76.17;100181.56;5063676;28;20087;-73
2021/05/05 06:56:44;;;;;;;11.73;2.22;;;;;;;6.36;75.35;100184.97;5055730;28;20052;-73
2021/05/05 06:59:10;;;;;;;11.02;1.92;;;;;;;6.37;74.91;100199.63;5061188;28;20075;-73
2021/05/05 07:01:38;;;;;;;8.95;1.65;;;;;;;6.40;75.27;100192.38;5063478;28;20117;-73
2021/05/05 07:04:05;;;;;;;11.00;2.28;;;;;;;6.38;74.85;100222.97;5062240;28;20060;-75
2021/05/05 07:06:33;;;;;;;6.60;2.15;;;;;;;6.36;74.39;100198.81;5064994;28;20040;-73
2021/05/05 07:09:00;;;;;;;5.40;1.80;;;;;;;6.41;74.38;100194.03;5044185;28;22646;-73
2021/05/05 07:11:27;;;;;;;11.02;2.00;;;;;;;6.38;74.23;100202.13;5050658;28;20076;-73
2021/05/05 07:13:54;;;;;;;9.15;2.13;;;;;;;6.41;74.60;100196.66;5056240;28;20461;-75
2021/05/05 07:16:21;;;;;;;5.00;2.20;;;;;;;6.46;74.03;100212.69;5064546;28;20122;-76
2021/05/05 07:18:47;;;;;;;8.18;1.95;;;;;;;6.57;75.28;100216.16;5062525;28;20052;-74
2021/05/05 07:21:14;;;;;;;8.00;2.10;;;;;;;6.61;74.65;100201.88;5053740;28;20064;-73
2021/05/05 07:23:40;;;;;;;10.20;3.28;;;;;;;6.60;74.74;100202.84;5062001;28;20109;-73
2021/05/05 07:26:06;;;;;;;10.32;3.05;;;;;;;6.61;74.59;100197.50;5052883;28;20543;-74
2021/05/05 07:28:32;;;;;;;10.60;2.63;;;;;;;6.71;74.67;100208.75;5062518;28;20059;-75
2021/05/05 07:30:59;;;;;;;7.72;2.67;;;;;;;6.79;74.24;100209.84;5042245;28;20048;-74
2021/05/05 07:33:25;;;;;;;6.50;2.58;;;;;;;6.73;73.44;100208.63;5063575;28;20099;-76
2021/05/05 07:35:55;;;;;;;9.63;2.75;;;;;;;6.62;73.03;100216.56;5064446;28;20049;-75
2021/05/05 07:41:55;;;;;;;8.63;2.83;;;;;;;6.85;73.44;100210.13;5061515;28;20048;-75
2021/05/05 07:46:47;;;;;;;12.10;2.20;;;;;;;6.92;72.29;100211.22;5063974;28;20119;-75
2021/05/05 07:49:17;;;;;;;7.38;2.55;;;;;;;7.02;72.41;100218.22;5058774;28;20053;-74
2021/05/05 07:51:43;;;;;;;12.25;2.72;;;;;;;7.03;71.82;100217.25;5062151;28;20090;-75
2021/05/05 07:54:09;;;;;;;8.32;2.45;;;;;;;7.15;73.28;100208.31;5054851;28;20044;-74
2021/05/05 07:56:35;;;;;;;14.00;2.60;;;;;;;7.22;72.76;100206.81;5061956;28;20047;-76
2021/05/05 07:59:01;;;;;;;9.50;2.97;;;;;;;7.25;70.35;100197.88;5056600;28;20527;-75
2021/05/05 08:01:28;;;;;;;6.45;2.10;;;;;;;7.39;71.26;100218.31;5067889;28;20054;-75
2021/05/05 08:03:59;;;;;;;8.30;2.05;;;;;;;7.52;71.11;100218.00;5065125;28;20092;-76
2021/05/05 08:06:27;;;;;;;13.80;3.25;;;;;;;7.60;70.65;100217.28;5044043;28;20525;-74
2021/05/05 08:08:54;;;;;;;7.20;2.00;;;;;;;7.82;72.92;100232.63;5061770;28;20079;-74
2021/05/05 08:11:21;;;;;;;8.70;2.03;;;;;;;7.81;71.72;100228.34;5058242;28;20056;-74
2021/05/05 08:13:50;;;;;;;7.07;1.48;;;;;;;7.50;71.07;100241.63;5045089;28;20550;-74
2021/05/05 08:16:18;;;;;;;11.20;1.60;;;;;;;7.46;71.70;100253.31;5061522;28;20052;-74
2021/05/05 08:18:44;;;;;;;6.72;1.58;;;;;;;7.39;73.46;100254.84;5061795;28;20071;-74
2021/05/05 08:21:11;;;;;;;9.13;1.90;;;;;;;7.29;74.03;100264.44;5055268;28;20832;-73
2021/05/05 08:23:38;;;;;;;4.68;1.40;;;;;;;7.24;74.21;100251.84;5055693;28;20466;-73
2021/05/05 08:26:09;;;;;;;7.63;1.90;;;;;;;7.33;75.09;100253.63;5060369;28;20063;-74
2021/05/05 08:28:36;;;;;;;9.77;1.55;;;;;;;7.13;73.33;100250.22;5037049;28;20080;-75
2021/05/05 08:31:03;;;;;;;6.45;1.50;;;;;;;7.23;74.37;100259.78;5062114;28;20063;-76
2021/05/05 08:33:29;;;;;;;7.55;1.60;;;;;;;7.28;74.71;100253.19;5033184;28;20048;-74
2021/05/05 08:35:55;;;;;;;6.35;1.48;;;;;;;7.42;73.51;100253.75;5028633;28;20143;-75
2021/05/05 08:38:22;;;;;;;10.38;1.55;;;;;;;7.62;71.44;100268.38;5062613;28;20650;-74
2021/05/05 08:40:48;;;;;;;11.00;2.17;;;;;;;7.78;71.73;100267.81;5038418;28;20070;-74
2021/05/05 08:43:14;;;;;;;10.32;1.90;;;;;;;7.86;72.53;100259.25;5045322;28;20050;-74
2021/05/05 08:45:41;;;;;;;11.52;2.08;;;;;;;7.87;71.12;100277.41;5057016;28;20052;-73
2021/05/05 08:48:09;;;;;;;6.95;1.75;;;;;;;7.89;68.41;100275.47;5044780;28;20470;-73
2021/05/05 08:50:38;;;;;;;8.73;2.07;;;;;;;8.05;71.03;100274.84;5053831;28;20151;-73
2021/05/05 08:53:06;;;;;;;7.57;1.48;;;;;;;7.92;68.42;100285.63;5049842;28;20549;-74
2021/05/05 08:55:34;;;;;;;7.10;1.42;;;;;;;8.14;68.02;100286.25;5067563;28;20108;-74
2021/05/05 08:58:00;;;;;;;8.23;1.55;;;;;;;8.45;67.67;100292.06;5062242;28;20141;-73
2021/05/05 09:00:31;;;;;;;9.23;1.60;;;;;;;8.81;67.13;100289.50;5045842;28;20045;-74
2021/05/05 09:02:58;;;;;;;9.07;1.70;;;;;;;9.15;67.05;100280.16;5054729;28;21007;-73
2021/05/05 09:05:57;;;;;;;7.47;1.88;;;;;;;8.86;64.17;100289.88;5063958;28;20087;-73
2021/05/05 09:08:24;;;;;;;7.45;1.75;;;;;;;9.05;65.30;100290.72;5060815;28;20098;-74
2021/05/05 09:11:08;;;;;;;11.35;2.13;;;;;;;9.11;68.22;100297.94;5066404;28;20072;-73
2021/05/05 09:13:51;;;;;;;6.88;1.90;;;;;;;8.85;66.46;100314.38;5060953;28;20454;-74
2021/05/05 09:16:23;;;;;;;5.38;1.20;;;;;;;8.70;65.49;100303.63;5055781;28;20055;-73
2021/05/05 09:18:52;;;;;;;9.98;1.83;;;;;;;8.65;67.72;100310.25;5063871;28;20048;-73
2021/05/05 09:21:32;;;;;;;10.38;1.90;;;;;;;8.77;68.20;100334.41;5077288;28;20083;-72
2021/05/05 09:24:28;;;;;;;10.15;1.70;;;;;;;9.08;67.57;100308.72;5065946;28;20052;-73
2021/05/05 09:27:02;;;;;;;7.88;1.65;;;;;;;9.46;66.56;100322.47;5064741;28;20052;-73
2021/05/05 09:29:45;;;;;;;4.88;1.58;;;;;;;9.69;67.26;100333.28;5060058;28;20771;-72
2021/05/05 09:32:13;;;;;;;8.23;2.25;;;;;;;9.15;65.22;100319.41;5059546;28;20044;-73
2021/05/05 09:34:40;;;;;;;13.95;2.33;;;;;;;8.85;67.20;100330.06;5063875;28;20124;-73
2021/05/05 09:37:12;;;;;;;9.27;1.65;;;;;;;8.83;68.07;100332.00;5059814;28;20114;-73
2021/05/05 09:39:40;;;;;;;10.88;2.08;;;;;;;8.84;68.05;100335.44;5066785;28;20120;-73
2021/05/05 09:42:18;;;;;;;7.57;1.50;;;;;;;8.68;66.09;100346.53;5057210;28;20056;-74
2021/05/05 09:44:57;;;;;;;9.75;2.03;;;;;;;9.02;64.29;100338.13;5059013;28;20049;-73
2021/05/05 09:47:25;;;;;;;9.63;1.98;;;;;;;9.37;62.27;100355.63;5058037;28;20504;-73
2021/05/05 09:49:51;;;;;;;12.70;1.83;;;;;;;9.68;61.32;100363.06;5066148;28;20049;-74
2021/05/05 09:52:24;;;;;;;11.57;2.35;;;;;;;9.59;62.00;100359.56;5063316;28;20055;-74
2021/05/05 09:55:03;;;;;;;9.40;1.98;;;;;;;9.94;63.44;100367.50;5058878;28;20137;-74
2021/05/05 09:57:34;;;;;;;7.28;1.40;;;;;;;9.68;62.33;100360.44;5059087;28;20749;-74
2021/05/05 10:00:11;;;;;;;6.43;1.60;;;;;;;9.57;60.32;100363.31;5047044;28;20526;-74
2021/05/05 10:02:43;;;;;;;6.82;1.25;;;;;;;9.66;61.29;100372.88;5060492;28;20796;-74
2021/05/05 10:05:18;;;;;;;6.45;1.35;;;;;;;10.00;59.44;100372.97;5055409;28;20084;-74
2021/05/05 10:08:00;;;;;;;7.07;1.17;;;;;;;10.19;59.22;100371.97;5057541;28;20456;-74
2021/05/05 10:10:29;;;;;;;7.38;1.45;;;;;;;10.34;59.33;100389.75;5044082;28;20476;-74
2021/05/05 10:12:58;;;;;;;8.55;1.48;;;;;;;9.94;59.35;100388.47;5059699;28;20095;-73
2021/05/05 10:15:24;;;;;;;7.97;1.60;;;;;;;9.99;59.68;100380.97;5065706;28;20149;-73
2021/05/05 10:18:11;;;;;;;11.07;1.83;;;;;;;10.23;61.70;100399.50;5043332;28;20056;-74
2021/05/05 10:20:43;;;;;;;7.63;1.95;;;;;;;9.98;60.48;100398.50;5065403;28;20048;-74
2021/05/05 10:23:10;;;;;;;7.57;1.55;;;;;;;10.14;59.95;100392.56;5059977;28;20068;-73
2021/05/05 10:25:41;;;;;;;9.57;1.63;;;;;;;9.70;60.89;100424.81;5058463;28;20194;-73
2021/05/05 10:28:06;;;;;;;7.60;1.30;;;;;;;9.72;61.48;100398.44;5059096;28;20053;-73
2021/05/05 10:30:34;;;;;;;6.47;1.27;;;;;;;9.67;63.52;100426.91;5066101;28;20565;-74
2021/05/05 10:33:19;;;;;;;5.10;1.30;;;;;;;9.87;63.87;100424.94;5050746;28;20552;-73
2021/05/05 10:35:45;;;;;;;7.85;1.67;;;;;;;10.05;62.30;100427.53;5062885;28;20101;-73
2021/05/05 10:38:31;;;;;;;9.20;1.63;;;;;;;10.13;61.54;100438.06;5063391;28;20082;-74
2021/05/05 10:41:12;;;;;;;8.25;1.40;;;;;;;10.31;60.82;100422.34;5056172;28;20056;-74
2021/05/05 10:43:46;;;;;;;6.63;1.98;;;;;;;10.39;58.79;100411.91;5063991;28;20052;-74
2021/05/05 10:46:38;;;;;;;10.35;1.92;;;;;;;10.83;59.95;100426.72;5060867;28;20072;-74
2021/05/05 10:49:18;;;;;;;11.45;2.47;;;;;;;10.84;59.17;100431.81;5062269;28;20048;-74
2021/05/05 10:51:44;;;;;;;8.60;1.95;;;;;;;11.10;59.83;100438.78;5058343;28;20052;-74
2021/05/05 10:54:20;;;;;;;13.70;2.85;;;;;;;11.23;58.43;100441.78;5061210;28;21105;-74
2021/05/05 10:57:10;;;;;;;11.35;2.33;;;;;;;10.87;59.20;100441.16;5058736;28;20138;-74
2021/05/05 10:59:55;;;;;;;11.93;1.70;;;;;;;10.64;60.48;100467.94;5069780;28;20097;-74
2021/05/05 11:02:39;;;;;;;12.32;2.42;;;;;;;10.54;60.01;100472.47;5058758;28;20048;-74
2021/05/05 11:05:11;;;;;;;12.15;2.50;;;;;;;10.49;60.43;100459.00;5048249;28;20059;-74
2021/05/05 11:07:49;;;;;;;14.35;2.60;;;;;;;10.72;61.47;100451.41;5053305;28;20667;-75
2021/05/05 11:10:30;;;;;;;14.70;2.75;;;;;;;10.73;60.02;100484.53;5063875;28;20052;-74
2021/05/05 11:13:25;;;;;;;7.75;2.58;;;;;;;10.56;61.42;100485.41;5058393;28;20075;-75
2021/05/05 11:15:51;;;;;;;8.50;1.92;;;;;;;10.86;60.93;100479.69;5063874;28;20056;-75
2021/05/05 11:18:38;;;;;;;13.23;3.30;;;;;;;11.15;59.01;100470.63;5048221;28;20072;-75
2021/05/05 11:21:09;;;;;;;13.43;2.20;;;;;;;11.51;56.67;100475.66;5061011;28;20060;-75
2021/05/05 11:23:40;;;;;;;7.78;1.90;;;;;;;11.48;55.44;100468.91;5054942;28;20060;-75
2021/05/05 11:26:20;;;;;;;13.13;2.50;;;;;;;11.64;55.28;100480.44;5058366;28;20101;-75
2021/05/05 11:29:02;;;;;;;12.50;3.53;;;;;;;11.49;57.06;100482.88;5072405;28;20477;-74
2021/05/05 11:31:46;;;;;;;11.00;2.08;;;;;;;11.45;56.95;100492.06;5042313;28;20063;-74
2021/05/05 11:34:24;;;;;;;10.05;1.98;;;;;;;10.97;57.18;100504.03;5062613;28;20091;-74
2021/05/05 11:37:10;;;;;;;14.98;2.60;;;;;;;11.38;56.64;100501.56;5054030;28;20488;-75
2021/05/05 11:39:42;;;;;;;17.67;2.38;;;;;;;11.81;56.57;100497.06;5062020;28;20048;-75
2021/05/05 11:42:20;;;;;;;13.48;2.00;;;;;;;11.60;54.58;100510.66;5042306;28;20124;-75
2021/05/05 11:45:12;;;;;;;13.07;2.20;;;;;;;11.98;54.89;100511.09;5065392;28;20102;-74